createdAt,value
2018-12-17T06:09:51.840Z,31.13
2018-12-17T06:12:20.225Z,31.30
2018-12-17T06:14:48.609Z,30.00
2018-12-17T06:23:09.664Z,32.83
2018-12-17T06:25:38.104Z,32.77
2018-12-17T06:28:06.470Z,28.87
2018-12-17T06:30:34.851Z,27.87
2018-12-17T06:33:03.260Z,37.57
2018-12-17T06:35:31.659Z,40.37
2018-12-17T06:38:00.019Z,32.83
2018-12-17T06:40:28.396Z,30.33
2018-12-17T06:42:56.790Z,25.20
2018-12-17T06:45:25.147Z,27.43
2018-12-17T06:47:53.528Z,23.97
2018-12-17T06:50:21.883Z,29.07
2018-12-17T06:52:50.275Z,25.20
2018-12-17T06:55:18.812Z,26.20
2018-12-17T06:57:47.660Z,25.43
2018-12-17T07:00:16.029Z,28.17
2018-12-17T07:02:44.399Z,28.30
2018-12-17T07:05:12.757Z,29.17
2018-12-17T07:07:41.149Z,29.87
2018-12-17T07:10:09.744Z,28.37
2018-12-17T07:12:38.145Z,28.70
2018-12-17T07:15:07.160Z,27.10
2018-12-17T07:17:35.527Z,24.87
2018-12-17T07:20:04.333Z,28.70
2018-12-17T07:22:32.710Z,25.27
2018-12-17T07:25:01.074Z,25.23
2018-12-17T07:27:29.459Z,30.87
2018-12-17T07:29:57.837Z,25.63
2018-12-17T07:32:26.232Z,29.10
2018-12-17T07:34:54.657Z,26.13
2018-12-17T07:37:23.109Z,29.20
2018-12-17T07:39:51.609Z,28.30
2018-12-17T07:42:20.013Z,35.37
2018-12-17T07:44:48.376Z,29.87
2018-12-17T07:47:16.782Z,28.90
2018-12-17T07:49:45.148Z,31.10
2018-12-17T07:52:13.552Z,36.60
2018-12-17T07:54:41.918Z,33.00
2018-12-17T07:57:10.316Z,36.27
2018-12-17T07:59:38.688Z,32.43
2018-12-17T08:02:07.092Z,33.30
2018-12-17T08:04:35.465Z,32.53
2018-12-17T08:07:03.849Z,32.20
2018-12-17T08:09:32.216Z,28.73
2018-12-17T08:12:00.592Z,39.00
2018-12-17T08:14:28.969Z,40.57
2018-12-17T08:16:57.691Z,36.10
2018-12-17T08:19:26.070Z,32.80
2018-12-17T08:21:54.437Z,35.70
2018-12-17T08:24:22.836Z,28.00
2018-12-17T08:26:51.220Z,32.20
2018-12-17T08:29:19.596Z,30.43
2018-12-17T08:31:47.977Z,27.13
2018-12-17T08:34:16.388Z,28.87
2018-12-17T08:36:44.748Z,27.40
2018-12-17T08:39:13.145Z,35.27
2018-12-17T08:41:41.513Z,32.03
2018-12-17T08:44:09.896Z,34.37
2018-12-17T08:46:38.311Z,31.20
2018-12-17T08:49:06.727Z,30.13
2018-12-17T08:51:35.079Z,27.50
2018-12-17T08:54:03.581Z,30.67
2018-12-17T08:56:31.944Z,32.07
2018-12-17T08:59:00.439Z,27.33
2018-12-17T09:01:28.823Z,30.73
2018-12-17T09:03:57.215Z,28.43
2018-12-17T09:06:25.577Z,29.60
2018-12-17T09:08:53.953Z,30.03
2018-12-17T09:11:22.314Z,25.43
2018-12-17T09:13:50.808Z,27.40
2018-12-17T09:16:19.176Z,25.50
2018-12-17T09:18:47.702Z,28.40
2018-12-17T09:21:20.599Z,26.13
2018-12-17T09:23:57.627Z,26.53
2018-12-17T09:26:26.076Z,31.50
2018-12-17T09:28:54.497Z,26.67
2018-12-17T09:31:22.951Z,28.53
2018-12-17T09:33:51.355Z,28.57
2018-12-17T09:36:19.733Z,22.50
2018-12-17T09:38:48.131Z,26.70
2018-12-17T09:41:16.541Z,23.83
2018-12-17T09:43:44.915Z,23.10
2018-12-17T09:46:13.319Z,24.53
2018-12-17T09:48:41.716Z,22.27
2018-12-17T09:51:10.100Z,19.77
2018-12-17T09:53:38.562Z,20.17
2018-12-17T09:56:06.975Z,18.93
2018-12-17T09:58:35.367Z,19.43
2018-12-17T10:01:03.921Z,17.90
2018-12-17T10:03:32.307Z,15.63
2018-12-17T10:06:00.728Z,16.60
2018-12-17T10:08:29.148Z,19.50
2018-12-17T10:10:57.552Z,16.80
2018-12-17T10:13:26.000Z,15.67
2018-12-17T10:15:54.413Z,15.43
2018-12-17T10:18:22.812Z,17.33
2018-12-17T10:20:51.324Z,17.80
2018-12-17T10:23:19.706Z,16.33
2018-12-17T10:25:48.102Z,19.90
2018-12-17T10:28:16.458Z,18.70
2018-12-17T10:30:44.873Z,18.53
2018-12-17T10:33:13.258Z,16.10
2018-12-17T10:35:41.652Z,17.30
2018-12-17T10:38:10.036Z,12.83
2018-12-17T10:40:39.416Z,16.30
2018-12-17T10:43:07.814Z,20.17
2018-12-17T10:45:36.196Z,16.90
2018-12-17T10:48:04.687Z,23.47
2018-12-17T10:50:33.067Z,25.10
2018-12-17T10:53:01.448Z,17.23
2018-12-17T10:55:29.845Z,19.23
2018-12-17T10:57:58.212Z,24.57
2018-12-17T11:00:32.013Z,27.70
2018-12-17T11:03:06.391Z,26.20
2018-12-17T11:05:36.300Z,21.97
2018-12-17T11:08:04.683Z,18.90
2018-12-17T11:10:33.072Z,16.40
2018-12-17T11:13:01.620Z,17.20
2018-12-17T11:15:30.025Z,12.10
2018-12-17T11:17:58.379Z,15.27
2018-12-17T11:20:26.887Z,16.53
2018-12-17T11:22:55.484Z,10.33
2018-12-17T11:25:23.873Z,12.13
2018-12-17T11:27:52.250Z,10.47
2018-12-17T11:30:20.677Z,14.07
2018-12-17T11:32:49.055Z,14.53
2018-12-17T11:35:17.491Z,14.07
2018-12-17T11:37:45.876Z,15.67
2018-12-17T11:40:14.261Z,18.97
2018-12-17T11:42:42.799Z,16.10
2018-12-17T11:45:11.198Z,17.23
2018-12-17T11:47:39.579Z,14.83
2018-12-17T11:50:08.494Z,14.77
2018-12-17T11:52:36.933Z,16.13
2018-12-17T11:55:05.935Z,16.17
2018-12-17T11:58:42.692Z,14.43
2018-12-17T12:01:11.603Z,15.33
2018-12-17T12:03:41.821Z,15.23
2018-12-17T12:06:13.911Z,23.93
2018-12-17T12:08:40.659Z,11.17
2018-12-17T12:11:09.182Z,11.10
2018-12-17T12:13:37.636Z,8.77
2018-12-17T12:16:06.058Z,12.57
2018-12-17T12:18:34.422Z,11.33
2018-12-17T12:21:02.807Z,11.33
2018-12-17T12:23:31.176Z,9.37
2018-12-17T12:25:59.548Z,15.87
2018-12-17T12:28:27.912Z,11.80
2018-12-17T12:31:00.425Z,13.67
2018-12-17T12:33:26.677Z,17.20
2018-12-17T12:35:55.055Z,9.63
2018-12-17T12:38:23.428Z,7.30
2018-12-17T12:40:51.804Z,11.67
2018-12-17T12:43:20.153Z,15.07
2018-12-17T12:45:48.535Z,11.23
2018-12-17T12:48:16.897Z,10.10
2018-12-17T12:50:45.289Z,8.07
2018-12-17T12:53:13.656Z,13.10
2018-12-17T12:55:42.035Z,12.73
2018-12-17T12:58:10.392Z,6.33
2018-12-17T13:00:38.775Z,6.63
2018-12-17T13:03:07.155Z,10.03
2018-12-17T13:05:35.516Z,6.80
2018-12-17T13:08:04.128Z,7.83
2018-12-17T13:10:32.479Z,7.33
2018-12-17T13:13:00.861Z,4.43
2018-12-17T13:15:29.207Z,8.73
2018-12-17T13:17:57.584Z,6.70
2018-12-17T13:20:25.939Z,6.47
2018-12-17T13:22:54.320Z,9.30
2018-12-17T13:25:31.670Z,8.63
2018-12-17T13:28:00.045Z,5.50
2018-12-17T13:30:28.400Z,5.57
2018-12-17T13:32:56.912Z,7.70
2018-12-17T13:35:25.405Z,8.13
2018-12-17T13:37:53.785Z,9.83
2018-12-17T13:40:22.154Z,4.67
2018-12-17T13:42:50.533Z,7.43
2018-12-17T13:45:18.891Z,4.53
2018-12-17T13:47:47.265Z,5.73
2018-12-17T13:50:20.845Z,5.57
2018-12-17T13:52:49.289Z,7.27
2018-12-17T13:55:17.667Z,12.40
2018-12-17T13:57:46.061Z,9.43
2018-12-17T14:00:14.524Z,8.50
2018-12-17T14:02:42.908Z,6.83
2018-12-17T14:05:11.279Z,8.83
2018-12-17T14:07:39.663Z,5.53
2018-12-17T14:10:15.266Z,4.50
2018-12-17T14:12:43.641Z,14.73
2018-12-17T14:15:12.008Z,4.43
2018-12-17T14:17:44.611Z,8.53
2018-12-17T14:20:18.355Z,5.23
2018-12-17T14:22:46.873Z,5.03
2018-12-17T14:25:15.255Z,6.77
2018-12-17T14:27:43.631Z,8.23
2018-12-17T14:30:12.108Z,11.30
2018-12-17T14:32:40.486Z,14.60
2018-12-17T14:35:08.985Z,13.83
2018-12-17T14:37:41.649Z,10.80
2018-12-17T14:40:10.240Z,13.10
2018-12-17T14:42:41.644Z,16.17
2018-12-17T14:45:10.332Z,12.73
2018-12-17T14:47:38.713Z,13.40
2018-12-17T14:50:07.200Z,12.67
2018-12-17T14:52:35.586Z,11.80
2018-12-17T14:55:04.488Z,11.90
2018-12-17T14:57:32.879Z,16.47
2018-12-17T15:00:01.238Z,19.50
2018-12-17T15:02:32.361Z,23.53
2018-12-17T15:05:00.840Z,19.03
2018-12-17T15:07:29.896Z,18.53
2018-12-17T15:09:58.315Z,18.43
2018-12-17T15:12:26.731Z,22.30
2018-12-17T15:14:55.639Z,27.03
2018-12-17T15:17:24.790Z,18.73
2018-12-17T15:19:53.564Z,18.80
2018-12-17T15:22:21.967Z,17.23
2018-12-17T15:24:50.340Z,16.10
2018-12-17T15:27:18.806Z,13.00
2018-12-17T15:29:47.295Z,17.50
2018-12-17T15:32:15.710Z,17.43
2018-12-17T15:34:44.112Z,19.47
2018-12-17T15:37:12.467Z,13.57
2018-12-17T15:39:40.848Z,21.80
2018-12-17T15:42:09.631Z,23.97
2018-12-17T15:44:39.114Z,17.53
2018-12-17T15:47:07.697Z,26.53
2018-12-17T15:49:36.059Z,27.53
2018-12-17T15:52:04.654Z,28.00
2018-12-17T15:54:33.159Z,23.50
2018-12-17T15:57:01.556Z,25.60
2018-12-17T15:59:30.211Z,21.00
2018-12-17T16:01:58.576Z,33.57
2018-12-17T16:04:26.951Z,33.43
2018-12-17T16:06:55.968Z,26.83
2018-12-17T16:09:24.397Z,23.40
2018-12-17T16:11:52.751Z,20.33
2018-12-17T16:14:21.116Z,18.57
2018-12-17T16:16:49.471Z,20.10
2018-12-17T16:19:17.837Z,41.53
2018-12-17T16:21:46.189Z,30.97
2018-12-17T16:24:16.647Z,16.70
2018-12-17T16:26:45.034Z,16.27
2018-12-17T16:29:13.405Z,21.63
2018-12-17T16:31:42.111Z,13.73
2018-12-17T16:34:10.519Z,13.73
2018-12-17T16:36:39.089Z,11.07
2018-12-17T16:39:07.886Z,10.40
2018-12-17T16:41:36.251Z,15.20
2018-12-17T16:44:04.630Z,9.73
2018-12-17T16:46:33.003Z,19.50
2018-12-17T16:49:01.377Z,22.20
2018-12-17T16:51:29.751Z,19.30
2018-12-17T16:53:58.132Z,14.73
2018-12-17T16:56:26.492Z,14.97
2018-12-17T16:58:54.971Z,16.67
2018-12-17T17:01:23.354Z,17.60
2018-12-17T17:04:04.119Z,20.13
2018-12-17T17:06:32.495Z,13.50
2018-12-17T17:09:00.855Z,16.07
2018-12-17T17:11:29.207Z,20.80
2018-12-17T17:13:57.590Z,23.10
2018-12-17T17:16:25.959Z,23.73
2018-12-17T17:18:54.363Z,21.47
2018-12-17T17:21:22.758Z,19.40
2018-12-17T17:23:51.174Z,15.40
2018-12-17T17:26:19.548Z,18.40
2018-12-17T17:28:47.891Z,13.50
2018-12-17T17:31:16.256Z,14.37
2018-12-17T17:33:44.627Z,17.33
2018-12-17T17:36:13.001Z,19.57
2018-12-17T17:38:41.352Z,16.37
2018-12-17T17:41:09.717Z,18.73
2018-12-17T17:43:38.081Z,20.90
2018-12-17T17:46:08.524Z,22.60
2018-12-17T17:48:36.876Z,22.40
2018-12-17T17:51:05.250Z,21.47
2018-12-17T17:53:33.610Z,15.70
2018-12-17T17:56:01.983Z,12.47
2018-12-17T17:58:30.444Z,10.47
2018-12-17T18:00:59.146Z,8.10
2018-12-17T18:03:27.503Z,11.43
2018-12-17T18:05:55.877Z,11.93
2018-12-17T18:08:24.230Z,9.87
2018-12-17T18:10:52.588Z,7.77
2018-12-17T18:13:20.952Z,10.13
2018-12-17T18:15:49.321Z,12.03
2018-12-17T18:18:18.533Z,10.83
2018-12-17T18:20:46.896Z,8.10
2018-12-17T18:23:15.249Z,6.80
2018-12-17T18:25:43.944Z,11.00
2018-12-17T18:28:12.300Z,9.60
2018-12-17T18:30:40.684Z,13.17
2018-12-17T18:33:09.070Z,12.93
2018-12-17T18:35:37.494Z,21.87
2018-12-17T18:38:05.948Z,17.33
2018-12-17T18:40:34.375Z,12.03
2018-12-17T18:43:02.808Z,8.00
2018-12-17T18:45:38.017Z,7.17
2018-12-17T18:48:14.533Z,5.77
2018-12-17T18:50:43.004Z,6.07
2018-12-17T18:53:18.967Z,6.20
2018-12-17T18:55:47.368Z,4.50
2018-12-17T18:58:15.768Z,6.20
2018-12-17T19:00:44.294Z,14.60
2018-12-17T19:05:58.686Z,7.70
2018-12-17T19:08:27.131Z,5.20
2018-12-17T19:10:55.564Z,5.80
2018-12-17T19:13:24.101Z,7.00
2018-12-17T19:15:52.692Z,6.90
2018-12-17T19:18:25.508Z,7.83
2018-12-17T19:20:54.928Z,8.93
2018-12-17T19:23:23.368Z,7.83
2018-12-17T19:25:51.808Z,8.60
2018-12-17T19:28:20.237Z,5.97
2018-12-17T19:30:50.810Z,9.20
2018-12-17T19:33:35.930Z,5.40
2018-12-17T19:36:04.392Z,7.80
2018-12-17T19:38:32.828Z,13.37
2018-12-17T19:41:01.319Z,16.53
2018-12-17T19:43:29.771Z,13.27
2018-12-17T19:45:58.238Z,17.63
2018-12-17T19:48:26.664Z,11.40
2018-12-17T19:50:55.086Z,12.20
2018-12-17T19:53:23.563Z,15.10
2018-12-17T19:55:52.019Z,10.07
2018-12-17T19:58:20.459Z,9.30
2018-12-17T20:00:49.213Z,8.47
2018-12-17T20:03:17.648Z,8.10
2018-12-17T20:05:46.731Z,9.60
2018-12-17T20:08:15.137Z,9.40
2018-12-17T20:10:43.577Z,7.60
2018-12-17T20:13:12.015Z,9.33
2018-12-17T20:15:40.573Z,8.30
2018-12-17T20:18:08.992Z,7.13
2018-12-17T20:20:37.483Z,11.70
2018-12-17T20:23:06.076Z,8.63
2018-12-17T20:25:34.512Z,9.10
2018-12-17T20:28:02.944Z,11.33
2018-12-17T20:30:31.472Z,8.30
2018-12-17T20:32:59.923Z,9.90
2018-12-17T20:35:28.512Z,14.20
2018-12-17T20:37:56.939Z,6.53
2018-12-17T20:40:25.492Z,8.53
2018-12-17T20:42:53.889Z,13.10
2018-12-17T20:45:22.325Z,8.03
2018-12-17T20:47:50.734Z,10.17
2018-12-17T20:50:19.184Z,10.50
2018-12-17T20:52:47.630Z,12.30
2018-12-17T20:55:16.079Z,8.53
2018-12-17T20:57:44.533Z,9.23
2018-12-17T21:00:13.100Z,7.93
2018-12-17T21:02:41.504Z,8.93
2018-12-17T21:05:10.005Z,9.27
2018-12-17T21:07:42.362Z,11.00
2018-12-17T21:10:10.903Z,11.83
2018-12-17T21:12:39.503Z,10.10
2018-12-17T21:15:08.149Z,11.33
2018-12-17T21:17:36.666Z,5.00
2018-12-17T21:20:05.376Z,6.33
2018-12-17T21:22:33.836Z,9.07
2018-12-17T21:25:02.263Z,8.50
2018-12-17T21:27:30.723Z,9.13
2018-12-17T21:29:59.128Z,8.17
2018-12-17T21:32:27.544Z,12.77
2018-12-17T21:34:55.956Z,11.60
2018-12-17T21:37:25.035Z,15.73
2018-12-17T21:39:53.535Z,14.40
2018-12-17T21:42:21.937Z,20.07
2018-12-17T21:44:50.335Z,11.63
2018-12-17T21:47:18.748Z,9.97
2018-12-17T21:49:47.131Z,10.83
2018-12-17T21:52:15.640Z,18.40
2018-12-17T21:54:44.069Z,11.17
2018-12-17T21:57:12.503Z,14.57
2018-12-17T21:59:40.880Z,12.37
2018-12-17T22:02:09.325Z,11.07
2018-12-17T22:04:37.736Z,14.80
2018-12-17T22:07:06.173Z,16.43
2018-12-17T22:09:34.568Z,19.80
2018-12-17T22:12:03.035Z,13.23
2018-12-17T22:14:31.520Z,12.40
2018-12-17T22:16:59.930Z,13.33
2018-12-17T22:19:28.482Z,12.60
2018-12-17T22:21:56.877Z,9.50
2018-12-17T22:24:25.268Z,12.57
2018-12-17T22:26:53.695Z,11.70
2018-12-17T22:29:22.043Z,10.57
2018-12-17T22:31:50.407Z,10.70
2018-12-17T22:34:18.765Z,9.90
2018-12-17T22:36:47.136Z,14.33
2018-12-17T22:39:15.585Z,9.90
2018-12-17T22:41:43.963Z,11.87
2018-12-17T22:44:12.320Z,9.00
2018-12-17T22:46:40.722Z,8.47
2018-12-17T22:49:09.097Z,11.20
2018-12-17T22:51:37.479Z,14.60
2018-12-17T22:54:05.839Z,12.67
2018-12-17T22:56:34.215Z,10.03
2018-12-17T22:59:02.583Z,11.83
2018-12-17T23:01:30.965Z,22.20
2018-12-17T23:03:59.331Z,19.50
2018-12-17T23:06:27.821Z,14.67
2018-12-17T23:09:07.763Z,24.40
2018-12-17T23:11:52.723Z,10.63
2018-12-17T23:14:32.222Z,9.77
2018-12-17T23:17:11.736Z,14.10
2018-12-17T23:19:42.547Z,8.23
2018-12-17T23:22:11.423Z,17.37
2018-12-17T23:24:39.890Z,44.00
2018-12-17T23:27:08.379Z,32.10
2018-12-17T23:29:36.723Z,17.20
2018-12-17T23:32:05.319Z,21.00
2018-12-17T23:34:33.688Z,14.77
2018-12-17T23:37:02.062Z,15.40
2018-12-17T23:39:30.430Z,9.03
2018-12-17T23:41:58.796Z,10.03
2018-12-17T23:44:27.296Z,9.47
2018-12-17T23:46:55.663Z,12.33
2018-12-17T23:49:24.027Z,10.10
2018-12-17T23:51:52.488Z,12.10
2018-12-17T23:54:20.868Z,10.33
2018-12-17T23:56:49.469Z,11.30
2018-12-17T23:59:17.843Z,11.67
